sensor_id;sensor_type;location;lat;lon;timestamp;temperature;humidity
63537;DHT22;49686;51.880;5.632;2023-12-29T00:01:30;11.10;99.90
63537;DHT22;49686;51.880;5.632;2023-12-29T00:03:57;11.00;99.90
63537;DHT22;49686;51.880;5.632;2023-12-29T00:06:24;11.10;99.90
63537;DHT22;49686;51.880;5.632;2023-12-29T00:08:51;11.10;99.90
63537;DHT22;49686;51.880;5.632;2023-12-29T00:11:20;11.10;99.90
63537;DHT22;49686;51.880;5.632;2023-12-29T00:13:47;11.10;99.90
63537;DHT22;49686;51.880;5.632;2023-12-29T00:16:14;10.90;99.90
63537;DHT22;49686;51.880;5.632;2023-12-29T00:18:41;10.70;99.90
63537;DHT22;49686;51.880;5.632;2023-12-29T00:21:09;10.60;99.90
63537;DHT22;49686;51.880;5.632;2023-12-29T00:23:35;10.60;99.90
63537;DHT22;49686;51.880;5.632;2023-12-29T00:26:02;10.60;99.90
63537;DHT22;49686;51.880;5.632;2023-12-29T00:28:30;10.60;99.90
63537;DHT22;49686;51.880;5.632;2023-12-29T00:30:57;10.70;99.90
63537;DHT22;49686;51.880;5.632;2023-12-29T00:33:29;10.80;99.90
63537;DHT22;49686;51.880;5.632;2023-12-29T00:35:56;10.80;99.90
63537;DHT22;49686;51.880;5.632;2023-12-29T00:38:24;10.90;99.90
63537;DHT22;49686;51.880;5.632;2023-12-29T00:40:51;10.90;99.90
63537;DHT22;49686;51.880;5.632;2023-12-29T00:43:18;10.90;99.90
63537;DHT22;49686;51.880;5.632;2023-12-29T00:45:46;11.00;99.90
63537;DHT22;49686;51.880;5.632;2023-12-29T00:48:13;11.00;99.90
63537;DHT22;49686;51.880;5.632;2023-12-29T00:50:40;11.00;99.90
63537;DHT22;49686;51.880;5.632;2023-12-29T00:53:07;11.00;99.90
63537;DHT22;49686;51.880;5.632;2023-12-29T00:55:34;11.00;99.90
63537;DHT22;49686;51.880;5.632;2023-12-29T00:58:01;10.90;99.90
63537;DHT22;49686;51.880;5.632;2023-12-29T01:00:28;10.90;99.90
63537;DHT22;49686;51.880;5.632;2023-12-29T01:02:56;10.80;99.90
63537;DHT22;49686;51.880;5.632;2023-12-29T01:05:23;10.70;99.90
63537;DHT22;49686;51.880;5.632;2023-12-29T01:07:50;10.70;99.90
63537;DHT22;49686;51.880;5.632;2023-12-29T01:10:17;10.60;99.90
63537;DHT22;49686;51.880;5.632;2023-12-29T01:12:44;10.60;99.90
63537;DHT22;49686;51.880;5.632;2023-12-29T01:15:11;10.60;99.90
63537;DHT22;49686;51.880;5.632;2023-12-29T01:17:38;10.50;99.90
63537;DHT22;49686;51.880;5.632;2023-12-29T01:20:07;10.50;99.90
63537;DHT22;49686;51.880;5.632;2023-12-29T01:22:34;10.50;99.90
63537;DHT22;49686;51.880;5.632;2023-12-29T01:25:02;10.50;99.90
63537;DHT22;49686;51.880;5.632;2023-12-29T01:27:29;10.50;99.90
63537;DHT22;49686;51.880;5.632;2023-12-29T01:29:56;10.60;99.90
63537;DHT22;49686;51.880;5.632;2023-12-29T01:32:23;10.50;99.90
63537;DHT22;49686;51.880;5.632;2023-12-29T01:34:52;10.50;99.90
63537;DHT22;49686;51.880;5.632;2023-12-29T01:37:20;10.50;99.90
63537;DHT22;49686;51.880;5.632;2023-12-29T01:39:47;10.50;99.90
63537;DHT22;49686;51.880;5.632;2023-12-29T01:42:14;10.50;99.90
63537;DHT22;49686;51.880;5.632;2023-12-29T01:44:41;10.50;99.90
63537;DHT22;49686;51.880;5.632;2023-12-29T01:47:13;10.50;99.90
63537;DHT22;49686;51.880;5.632;2023-12-29T01:49:41;10.50;99.90
63537;DHT22;49686;51.880;5.632;2023-12-29T01:52:09;10.50;99.90
63537;DHT22;49686;51.880;5.632;2023-12-29T01:54:38;10.50;99.90
63537;DHT22;49686;51.880;5.632;2023-12-29T01:57:05;10.40;99.90
63537;DHT22;49686;51.880;5.632;2023-12-29T01:59:33;10.40;99.90
63537;DHT22;49686;51.880;5.632;2023-12-29T02:02:01;10.40;99.90
63537;DHT22;49686;51.880;5.632;2023-12-29T02:04:29;10.30;99.90
63537;DHT22;49686;51.880;5.632;2023-12-29T02:06:57;10.30;99.90
63537;DHT22;49686;51.880;5.632;2023-12-29T02:09:23;10.30;99.90
63537;DHT22;49686;51.880;5.632;2023-12-29T02:11:52;10.30;99.90
63537;DHT22;49686;51.880;5.632;2023-12-29T02:14:19;10.20;99.90
63537;DHT22;49686;51.880;5.632;2023-12-29T02:16:54;10.20;99.90
63537;DHT22;49686;51.880;5.632;2023-12-29T02:19:36;10.10;99.90
63537;DHT22;49686;51.880;5.632;2023-12-29T02:22:04;10.10;99.90
63537;DHT22;49686;51.880;5.632;2023-12-29T02:24:34;10.00;99.90
63537;DHT22;49686;51.880;5.632;2023-12-29T02:27:11;9.90;99.90
63537;DHT22;49686;51.880;5.632;2023-12-29T02:29:40;9.90;99.90
63537;DHT22;49686;51.880;5.632;2023-12-29T02:32:12;9.90;99.90
63537;DHT22;49686;51.880;5.632;2023-12-29T02:34:41;9.90;99.90
63537;DHT22;49686;51.880;5.632;2023-12-29T02:37:10;9.90;99.90
63537;DHT22;49686;51.880;5.632;2023-12-29T02:39:37;9.90;99.90
63537;DHT22;49686;51.880;5.632;2023-12-29T02:42:06;9.90;99.90
63537;DHT22;49686;51.880;5.632;2023-12-29T02:44:33;10.00;99.90
63537;DHT22;49686;51.880;5.632;2023-12-29T02:47:00;10.00;99.90
63537;DHT22;49686;51.880;5.632;2023-12-29T02:49:27;10.10;99.90
63537;DHT22;49686;51.880;5.632;2023-12-29T02:51:54;10.10;99.90
63537;DHT22;49686;51.880;5.632;2023-12-29T02:54:21;10.10;99.90
63537;DHT22;49686;51.880;5.632;2023-12-29T02:56:48;10.20;99.90
63537;DHT22;49686;51.880;5.632;2023-12-29T02:59:16;10.30;99.90
63537;DHT22;49686;51.880;5.632;2023-12-29T03:01:43;10.30;99.90
63537;DHT22;49686;51.880;5.632;2023-12-29T03:04:10;10.30;99.90
63537;DHT22;49686;51.880;5.632;2023-12-29T03:06:37;10.30;99.90
63537;DHT22;49686;51.880;5.632;2023-12-29T03:09:04;10.30;99.90
63537;DHT22;49686;51.880;5.632;2023-12-29T03:11:31;10.40;99.90
63537;DHT22;49686;51.880;5.632;2023-12-29T03:13:58;10.40;99.90
63537;DHT22;49686;51.880;5.632;2023-12-29T03:16:26;10.40;99.90
63537;DHT22;49686;51.880;5.632;2023-12-29T03:18:53;10.40;99.90
63537;DHT22;49686;51.880;5.632;2023-12-29T03:21:20;10.50;99.90
63537;DHT22;49686;51.880;5.632;2023-12-29T03:23:47;10.50;99.90
63537;DHT22;49686;51.880;5.632;2023-12-29T03:26:13;10.70;99.90
63537;DHT22;49686;51.880;5.632;2023-12-29T03:28:40;10.60;99.90
63537;DHT22;49686;51.880;5.632;2023-12-29T03:31:07;10.70;99.90
63537;DHT22;49686;51.880;5.632;2023-12-29T03:33:35;10.70;99.90
63537;DHT22;49686;51.880;5.632;2023-12-29T03:36:03;10.70;99.90
63537;DHT22;49686;51.880;5.632;2023-12-29T03:38:30;10.80;99.90
63537;DHT22;49686;51.880;5.632;2023-12-29T03:40:57;10.70;99.90
63537;DHT22;49686;51.880;5.632;2023-12-29T03:43:24;10.80;99.90
63537;DHT22;49686;51.880;5.632;2023-12-29T03:45:51;10.80;99.90
63537;DHT22;49686;51.880;5.632;2023-12-29T03:48:17;10.80;99.90
63537;DHT22;49686;51.880;5.632;2023-12-29T03:50:46;10.80;99.90
63537;DHT22;49686;51.880;5.632;2023-12-29T03:53:13;10.80;99.90
63537;DHT22;49686;51.880;5.632;2023-12-29T03:55:40;10.80;99.90
63537;DHT22;49686;51.880;5.632;2023-12-29T03:58:07;10.80;99.90
63537;DHT22;49686;51.880;5.632;2023-12-29T04:00:34;10.70;99.90
63537;DHT22;49686;51.880;5.632;2023-12-29T04:03:01;10.70;99.90
63537;DHT22;49686;51.880;5.632;2023-12-29T04:05:28;10.70;99.90
63537;DHT22;49686;51.880;5.632;2023-12-29T04:07:56;10.70;99.90
63537;DHT22;49686;51.880;5.632;2023-12-29T04:10:23;10.60;99.90
63537;DHT22;49686;51.880;5.632;2023-12-29T04:12:50;10.50;99.90
63537;DHT22;49686;51.880;5.632;2023-12-29T04:15:17;10.50;99.90
63537;DHT22;49686;51.880;5.632;2023-12-29T04:17:44;10.60;99.90
63537;DHT22;49686;51.880;5.632;2023-12-29T04:20:11;10.60;99.90
63537;DHT22;49686;51.880;5.632;2023-12-29T04:22:38;10.60;99.90
63537;DHT22;49686;51.880;5.632;2023-12-29T04:25:07;10.70;99.90
63537;DHT22;49686;51.880;5.632;2023-12-29T04:27:34;10.70;99.90
63537;DHT22;49686;51.880;5.632;2023-12-29T04:30:01;10.70;99.90
63537;DHT22;49686;51.880;5.632;2023-12-29T04:32:28;10.60;99.90
63537;DHT22;49686;51.880;5.632;2023-12-29T04:34:55;10.70;99.90
63537;DHT22;49686;51.880;5.632;2023-12-29T04:37:22;10.70;99.90
63537;DHT22;49686;51.880;5.632;2023-12-29T04:39:48;10.70;99.90
63537;DHT22;49686;51.880;5.632;2023-12-29T04:42:17;10.80;99.90
63537;DHT22;49686;51.880;5.632;2023-12-29T04:44:44;10.70;99.90
63537;DHT22;49686;51.880;5.632;2023-12-29T04:47:11;10.70;99.90
63537;DHT22;49686;51.880;5.632;2023-12-29T04:49:38;10.70;99.90
63537;DHT22;49686;51.880;5.632;2023-12-29T04:52:05;10.70;99.90
63537;DHT22;49686;51.880;5.632;2023-12-29T04:54:32;10.70;99.90
63537;DHT22;49686;51.880;5.632;2023-12-29T04:56:59;10.70;99.90
63537;DHT22;49686;51.880;5.632;2023-12-29T04:59:27;10.70;99.90
63537;DHT22;49686;51.880;5.632;2023-12-29T05:01:54;10.70;99.90
63537;DHT22;49686;51.880;5.632;2023-12-29T05:04:21;10.70;99.90
63537;DHT22;49686;51.880;5.632;2023-12-29T05:06:48;10.70;99.90
63537;DHT22;49686;51.880;5.632;2023-12-29T05:09:15;10.70;99.90
63537;DHT22;49686;51.880;5.632;2023-12-29T05:11:42;10.70;99.90
63537;DHT22;49686;51.880;5.632;2023-12-29T05:14:09;10.60;99.90
63537;DHT22;49686;51.880;5.632;2023-12-29T05:16:37;10.70;99.90
63537;DHT22;49686;51.880;5.632;2023-12-29T05:19:04;10.60;99.90
63537;DHT22;49686;51.880;5.632;2023-12-29T05:21:31;10.60;99.90
63537;DHT22;49686;51.880;5.632;2023-12-29T05:23:58;10.50;99.90
63537;DHT22;49686;51.880;5.632;2023-12-29T05:26:25;10.50;99.90
63537;DHT22;49686;51.880;5.632;2023-12-29T05:28:52;10.50;99.90
63537;DHT22;49686;51.880;5.632;2023-12-29T05:31:18;10.50;99.90
63537;DHT22;49686;51.880;5.632;2023-12-29T05:33:47;10.50;99.90
63537;DHT22;49686;51.880;5.632;2023-12-29T05:36:14;10.40;99.90
63537;DHT22;49686;51.880;5.632;2023-12-29T05:41:13;10.40;99.90
63537;DHT22;49686;51.880;5.632;2023-12-29T05:43:40;10.40;99.90
63537;DHT22;49686;51.880;5.632;2023-12-29T05:46:09;10.30;99.90
63537;DHT22;49686;51.880;5.632;2023-12-29T05:48:36;10.30;99.90
63537;DHT22;49686;51.880;5.632;2023-12-29T05:51:08;10.20;99.90
63537;DHT22;49686;51.880;5.632;2023-12-29T05:53:34;10.20;99.90
63537;DHT22;49686;51.880;5.632;2023-12-29T05:56:01;10.20;99.90
63537;DHT22;49686;51.880;5.632;2023-12-29T05:58:28;10.10;99.90
63537;DHT22;49686;51.880;5.632;2023-12-29T06:00:55;10.20;99.90
63537;DHT22;49686;51.880;5.632;2023-12-29T06:03:22;10.10;99.90
63537;DHT22;49686;51.880;5.632;2023-12-29T06:05:49;10.10;99.90
63537;DHT22;49686;51.880;5.632;2023-12-29T06:08:18;10.10;99.90
63537;DHT22;49686;51.880;5.632;2023-12-29T06:10:44;10.10;99.90
63537;DHT22;49686;51.880;5.632;2023-12-29T06:13:11;10.10;99.90
63537;DHT22;49686;51.880;5.632;2023-12-29T06:15:38;10.10;99.90
63537;DHT22;49686;51.880;5.632;2023-12-29T06:18:05;10.10;99.90
63537;DHT22;49686;51.880;5.632;2023-12-29T06:20:32;10.10;99.90
63537;DHT22;49686;51.880;5.632;2023-12-29T06:22:59;10.10;99.90
63537;DHT22;49686;51.880;5.632;2023-12-29T06:25:28;10.10;99.90
63537;DHT22;49686;51.880;5.632;2023-12-29T06:27:55;10.10;99.90
63537;DHT22;49686;51.880;5.632;2023-12-29T06:30:22;10.00;99.90
63537;DHT22;49686;51.880;5.632;2023-12-29T06:32:49;10.10;99.90
63537;DHT22;49686;51.880;5.632;2023-12-29T06:35:16;10.10;99.90
63537;DHT22;49686;51.880;5.632;2023-12-29T06:37:43;10.00;99.90
63537;DHT22;49686;51.880;5.632;2023-12-29T06:40:10;10.00;99.90
63537;DHT22;49686;51.880;5.632;2023-12-29T06:42:38;10.00;99.90
63537;DHT22;49686;51.880;5.632;2023-12-29T06:45:06;10.10;99.90
63537;DHT22;49686;51.880;5.632;2023-12-29T06:47:33;10.10;99.90
63537;DHT22;49686;51.880;5.632;2023-12-29T06:50:01;10.10;99.90
63537;DHT22;49686;51.880;5.632;2023-12-29T06:52:28;10.00;99.90
63537;DHT22;49686;51.880;5.632;2023-12-29T06:54:54;9.80;99.90
63537;DHT22;49686;51.880;5.632;2023-12-29T06:57:21;9.70;99.90
63537;DHT22;49686;51.880;5.632;2023-12-29T06:59:50;9.60;99.90
63537;DHT22;49686;51.880;5.632;2023-12-29T07:02:16;9.50;99.90
63537;DHT22;49686;51.880;5.632;2023-12-29T07:04:43;9.50;99.90
63537;DHT22;49686;51.880;5.632;2023-12-29T07:07:10;9.40;99.90
63537;DHT22;49686;51.880;5.632;2023-12-29T07:09:38;9.40;99.90
63537;DHT22;49686;51.880;5.632;2023-12-29T07:12:05;9.30;99.90
63537;DHT22;49686;51.880;5.632;2023-12-29T07:14:32;9.30;99.90
63537;DHT22;49686;51.880;5.632;2023-12-29T07:17:01;9.20;99.90
63537;DHT22;49686;51.880;5.632;2023-12-29T07:19:28;9.20;99.90
63537;DHT22;49686;51.880;5.632;2023-12-29T07:21:55;9.20;99.90
63537;DHT22;49686;51.880;5.632;2023-12-29T07:24:22;9.20;99.90
63537;DHT22;49686;51.880;5.632;2023-12-29T07:26:49;9.30;99.90
63537;DHT22;49686;51.880;5.632;2023-12-29T07:29:16;9.20;99.90
63537;DHT22;49686;51.880;5.632;2023-12-29T07:31:43;9.20;99.90
63537;DHT22;49686;51.880;5.632;2023-12-29T07:34:12;9.20;99.90
63537;DHT22;49686;51.880;5.632;2023-12-29T07:36:39;9.20;99.90
63537;DHT22;49686;51.880;5.632;2023-12-29T07:39:06;9.20;99.90
63537;DHT22;49686;51.880;5.632;2023-12-29T07:41:34;9.20;99.90
63537;DHT22;49686;51.880;5.632;2023-12-29T07:44:01;9.30;99.90
63537;DHT22;49686;51.880;5.632;2023-12-29T07:46:28;9.40;99.90
63537;DHT22;49686;51.880;5.632;2023-12-29T07:48:55;9.40;99.90
63537;DHT22;49686;51.880;5.632;2023-12-29T07:51:23;9.50;99.90
63537;DHT22;49686;51.880;5.632;2023-12-29T07:53:50;9.60;99.90
63537;DHT22;49686;51.880;5.632;2023-12-29T07:56:19;9.60;99.90
63537;DHT22;49686;51.880;5.632;2023-12-29T07:58:46;9.60;99.90
63537;DHT22;49686;51.880;5.632;2023-12-29T08:01:16;9.70;99.90
63537;DHT22;49686;51.880;5.632;2023-12-29T08:03:43;9.70;99.90
63537;DHT22;49686;51.880;5.632;2023-12-29T08:06:10;9.70;99.90
63537;DHT22;49686;51.880;5.632;2023-12-29T08:08:38;9.70;99.90
63537;DHT22;49686;51.880;5.632;2023-12-29T08:11:05;9.70;99.90
63537;DHT22;49686;51.880;5.632;2023-12-29T08:13:34;9.70;99.90
63537;DHT22;49686;51.880;5.632;2023-12-29T08:16:01;9.70;99.90
63537;DHT22;49686;51.880;5.632;2023-12-29T08:18:28;9.70;99.90
63537;DHT22;49686;51.880;5.632;2023-12-29T08:20:55;9.70;99.90
63537;DHT22;49686;51.880;5.632;2023-12-29T08:23:22;9.70;99.90
63537;DHT22;49686;51.880;5.632;2023-12-29T08:25:50;9.80;99.90
63537;DHT22;49686;51.880;5.632;2023-12-29T08:28:19;9.80;99.90
63537;DHT22;49686;51.880;5.632;2023-12-29T08:30:46;9.80;99.90
63537;DHT22;49686;51.880;5.632;2023-12-29T08:33:13;9.90;99.90
63537;DHT22;49686;51.880;5.632;2023-12-29T08:35:41;9.80;99.90
63537;DHT22;49686;51.880;5.632;2023-12-29T08:38:08;9.90;99.90
63537;DHT22;49686;51.880;5.632;2023-12-29T08:40:35;9.90;99.90
63537;DHT22;49686;51.880;5.632;2023-12-29T08:43:04;9.90;99.90
63537;DHT22;49686;51.880;5.632;2023-12-29T08:45:31;9.90;99.90
63537;DHT22;49686;51.880;5.632;2023-12-29T08:47:57;10.00;99.90
63537;DHT22;49686;51.880;5.632;2023-12-29T08:50:25;9.90;99.90
63537;DHT22;49686;51.880;5.632;2023-12-29T08:52:52;10.00;99.90
63537;DHT22;49686;51.880;5.632;2023-12-29T08:55:19;10.00;99.90
63537;DHT22;49686;51.880;5.632;2023-12-29T08:57:45;10.00;99.90
63537;DHT22;49686;51.880;5.632;2023-12-29T09:00:14;10.00;99.90
63537;DHT22;49686;51.880;5.632;2023-12-29T09:02:41;10.00;99.90
63537;DHT22;49686;51.880;5.632;2023-12-29T09:05:08;10.00;99.90
63537;DHT22;49686;51.880;5.632;2023-12-29T09:07:35;10.10;99.90
63537;DHT22;49686;51.880;5.632;2023-12-29T09:10:02;10.00;99.90
63537;DHT22;49686;51.880;5.632;2023-12-29T09:12:30;10.10;99.90
63537;DHT22;49686;51.880;5.632;2023-12-29T09:14:56;10.10;99.90
63537;DHT22;49686;51.880;5.632;2023-12-29T09:17:25;10.10;99.90
63537;DHT22;49686;51.880;5.632;2023-12-29T09:19:52;10.10;99.90
63537;DHT22;49686;51.880;5.632;2023-12-29T09:22:29;10.10;99.90
63537;DHT22;49686;51.880;5.632;2023-12-29T09:24:56;10.10;99.90
63537;DHT22;49686;51.880;5.632;2023-12-29T09:27:23;10.10;99.90
63537;DHT22;49686;51.880;5.632;2023-12-29T09:29:50;10.10;99.90
63537;DHT22;49686;51.880;5.632;2023-12-29T09:32:17;10.20;99.90
63537;DHT22;49686;51.880;5.632;2023-12-29T09:34:45;10.10;99.90
63537;DHT22;49686;51.880;5.632;2023-12-29T09:37:12;10.20;99.90
63537;DHT22;49686;51.880;5.632;2023-12-29T09:39:39;10.20;99.90
63537;DHT22;49686;51.880;5.632;2023-12-29T09:42:07;10.20;99.90
63537;DHT22;49686;51.880;5.632;2023-12-29T09:44:35;10.30;99.90
63537;DHT22;49686;51.880;5.632;2023-12-29T09:47:03;10.30;99.90
63537;DHT22;49686;51.880;5.632;2023-12-29T09:49:36;10.40;99.90
63537;DHT22;49686;51.880;5.632;2023-12-29T09:52:06;10.40;99.90
63537;DHT22;49686;51.880;5.632;2023-12-29T09:54:33;10.40;99.90
63537;DHT22;49686;51.880;5.632;2023-12-29T09:57:04;10.50;99.90
63537;DHT22;49686;51.880;5.632;2023-12-29T09:59:34;10.40;99.90
63537;DHT22;49686;51.880;5.632;2023-12-29T10:02:03;10.40;99.90
63537;DHT22;49686;51.880;5.632;2023-12-29T10:04:31;10.40;99.90
63537;DHT22;49686;51.880;5.632;2023-12-29T10:07:01;10.40;99.90
63537;DHT22;49686;51.880;5.632;2023-12-29T10:09:30;10.50;99.90
63537;DHT22;49686;51.880;5.632;2023-12-29T10:12:00;10.40;99.90
63537;DHT22;49686;51.880;5.632;2023-12-29T10:14:35;10.40;99.90
63537;DHT22;49686;51.880;5.632;2023-12-29T10:17:10;10.40;99.90
63537;DHT22;49686;51.880;5.632;2023-12-29T10:19:40;10.40;99.90
63537;DHT22;49686;51.880;5.632;2023-12-29T10:22:11;10.50;99.90
63537;DHT22;49686;51.880;5.632;2023-12-29T10:24:43;10.50;99.90
63537;DHT22;49686;51.880;5.632;2023-12-29T10:27:10;10.50;99.90
63537;DHT22;49686;51.880;5.632;2023-12-29T10:29:37;10.50;99.90
63537;DHT22;49686;51.880;5.632;2023-12-29T10:32:05;10.50;99.90
63537;DHT22;49686;51.880;5.632;2023-12-29T10:34:32;10.50;99.90
63537;DHT22;49686;51.880;5.632;2023-12-29T10:36:59;10.50;99.90
63537;DHT22;49686;51.880;5.632;2023-12-29T10:39:27;10.60;99.90
63537;DHT22;49686;51.880;5.632;2023-12-29T10:42:03;10.60;99.90
63537;DHT22;49686;51.880;5.632;2023-12-29T10:44:30;10.60;99.90
63537;DHT22;49686;51.880;5.632;2023-12-29T10:46:57;10.60;99.90
63537;DHT22;49686;51.880;5.632;2023-12-29T10:49:24;10.60;99.90
63537;DHT22;49686;51.880;5.632;2023-12-29T10:51:51;10.60;99.90
63537;DHT22;49686;51.880;5.632;2023-12-29T10:54:20;10.70;99.90
63537;DHT22;49686;51.880;5.632;2023-12-29T10:57:01;10.70;99.90
63537;DHT22;49686;51.880;5.632;2023-12-29T10:59:29;10.70;99.90
63537;DHT22;49686;51.880;5.632;2023-12-29T11:02:00;10.80;99.90
63537;DHT22;49686;51.880;5.632;2023-12-29T11:04:33;10.90;99.90
63537;DHT22;49686;51.880;5.632;2023-12-29T11:06:59;10.90;99.90
63537;DHT22;49686;51.880;5.632;2023-12-29T11:09:30;11.00;99.90
63537;DHT22;49686;51.880;5.632;2023-12-29T11:11:59;11.00;99.90
63537;DHT22;49686;51.880;5.632;2023-12-29T11:14:28;11.00;99.90
63537;DHT22;49686;51.880;5.632;2023-12-29T11:16:55;11.00;99.90
63537;DHT22;49686;51.880;5.632;2023-12-29T11:19:26;11.00;99.90
63537;DHT22;49686;51.880;5.632;2023-12-29T11:21:54;11.10;99.90
63537;DHT22;49686;51.880;5.632;2023-12-29T11:24:25;11.10;99.90
63537;DHT22;49686;51.880;5.632;2023-12-29T11:27:06;11.20;99.90
63537;DHT22;49686;51.880;5.632;2023-12-29T11:29:37;11.20;99.90
63537;DHT22;49686;51.880;5.632;2023-12-29T11:32:11;11.20;99.90
63537;DHT22;49686;51.880;5.632;2023-12-29T11:34:42;11.20;99.90
63537;DHT22;49686;51.880;5.632;2023-12-29T11:37:29;11.20;99.90
63537;DHT22;49686;51.880;5.632;2023-12-29T11:40:09;11.10;99.90
63537;DHT22;49686;51.880;5.632;2023-12-29T11:42:40;11.20;99.90
63537;DHT22;49686;51.880;5.632;2023-12-29T11:45:25;11.10;99.90
63537;DHT22;49686;51.880;5.632;2023-12-29T11:47:52;11.20;99.90
63537;DHT22;49686;51.880;5.632;2023-12-29T11:50:27;11.20;99.90
63537;DHT22;49686;51.880;5.632;2023-12-29T11:52:54;11.20;99.90
63537;DHT22;49686;51.880;5.632;2023-12-29T11:55:21;11.20;99.90
63537;DHT22;49686;51.880;5.632;2023-12-29T11:57:54;11.20;99.90
63537;DHT22;49686;51.880;5.632;2023-12-29T12:00:45;11.20;99.90
63537;DHT22;49686;51.880;5.632;2023-12-29T12:03:23;11.20;99.90
63537;DHT22;49686;51.880;5.632;2023-12-29T12:05:51;11.20;99.90
63537;DHT22;49686;51.880;5.632;2023-12-29T12:08:29;11.20;99.90
63537;DHT22;49686;51.880;5.632;2023-12-29T12:10:57;11.10;99.90
63537;DHT22;49686;51.880;5.632;2023-12-29T12:13:43;11.10;99.90
63537;DHT22;49686;51.880;5.632;2023-12-29T12:16:47;11.10;99.90
63537;DHT22;49686;51.880;5.632;2023-12-29T12:19:14;11.20;99.90
63537;DHT22;49686;51.880;5.632;2023-12-29T12:21:43;11.20;99.90
63537;DHT22;49686;51.880;5.632;2023-12-29T12:24:12;11.20;99.90
63537;DHT22;49686;51.880;5.632;2023-12-29T12:26:40;11.10;99.90
63537;DHT22;49686;51.880;5.632;2023-12-29T12:29:08;11.10;99.90
63537;DHT22;49686;51.880;5.632;2023-12-29T12:31:36;11.10;99.90
63537;DHT22;49686;51.880;5.632;2023-12-29T12:34:03;11.10;99.90
63537;DHT22;49686;51.880;5.632;2023-12-29T12:36:32;11.10;99.90
63537;DHT22;49686;51.880;5.632;2023-12-29T12:39:00;11.10;99.90
63537;DHT22;49686;51.880;5.632;2023-12-29T12:41:27;11.10;99.90
63537;DHT22;49686;51.880;5.632;2023-12-29T12:44:02;11.10;99.90
63537;DHT22;49686;51.880;5.632;2023-12-29T12:46:34;11.10;99.90
63537;DHT22;49686;51.880;5.632;2023-12-29T12:49:03;11.10;99.90
63537;DHT22;49686;51.880;5.632;2023-12-29T12:51:31;11.00;99.90
63537;DHT22;49686;51.880;5.632;2023-12-29T12:53:59;11.00;99.90
63537;DHT22;49686;51.880;5.632;2023-12-29T12:56:26;11.00;99.90
63537;DHT22;49686;51.880;5.632;2023-12-29T12:58:55;11.00;99.90
63537;DHT22;49686;51.880;5.632;2023-12-29T13:01:22;11.00;99.90
63537;DHT22;49686;51.880;5.632;2023-12-29T13:03:50;11.00;99.90
63537;DHT22;49686;51.880;5.632;2023-12-29T13:06:20;11.00;99.90
63537;DHT22;49686;51.880;5.632;2023-12-29T13:08:51;11.00;99.90
63537;DHT22;49686;51.880;5.632;2023-12-29T13:11:20;11.00;99.90
63537;DHT22;49686;51.880;5.632;2023-12-29T13:13:49;11.00;99.90
63537;DHT22;49686;51.880;5.632;2023-12-29T13:16:16;11.00;99.90
63537;DHT22;49686;51.880;5.632;2023-12-29T13:18:44;11.00;99.90
63537;DHT22;49686;51.880;5.632;2023-12-29T13:21:11;11.00;99.90
63537;DHT22;49686;51.880;5.632;2023-12-29T13:23:39;11.00;99.90
63537;DHT22;49686;51.880;5.632;2023-12-29T13:26:09;11.00;99.90
63537;DHT22;49686;51.880;5.632;2023-12-29T13:28:36;11.00;99.90
63537;DHT22;49686;51.880;5.632;2023-12-29T13:31:07;11.00;99.90
63537;DHT22;49686;51.880;5.632;2023-12-29T13:33:44;11.10;99.90
63537;DHT22;49686;51.880;5.632;2023-12-29T13:36:19;11.00;99.90
63537;DHT22;49686;51.880;5.632;2023-12-29T13:38:53;11.00;99.90
63537;DHT22;49686;51.880;5.632;2023-12-29T13:41:21;11.00;99.90
63537;DHT22;49686;51.880;5.632;2023-12-29T13:43:50;11.00;99.90
63537;DHT22;49686;51.880;5.632;2023-12-29T13:46:18;11.00;99.90
63537;DHT22;49686;51.880;5.632;2023-12-29T13:48:48;11.10;99.90
63537;DHT22;49686;51.880;5.632;2023-12-29T13:51:16;11.00;99.90
63537;DHT22;49686;51.880;5.632;2023-12-29T13:53:46;11.00;99.90
63537;DHT22;49686;51.880;5.632;2023-12-29T13:56:14;11.00;99.90
63537;DHT22;49686;51.880;5.632;2023-12-29T13:58:42;10.90;99.90
63537;DHT22;49686;51.880;5.632;2023-12-29T14:01:18;10.80;99.90
63537;DHT22;49686;51.880;5.632;2023-12-29T14:03:50;10.60;99.90
63537;DHT22;49686;51.880;5.632;2023-12-29T14:06:26;10.50;99.90
63537;DHT22;49686;51.880;5.632;2023-12-29T14:08:54;10.40;99.90
63537;DHT22;49686;51.880;5.632;2023-12-29T14:11:22;10.40;99.90
63537;DHT22;49686;51.880;5.632;2023-12-29T14:13:51;10.20;99.90
63537;DHT22;49686;51.880;5.632;2023-12-29T14:16:18;10.20;99.90
63537;DHT22;49686;51.880;5.632;2023-12-29T14:18:57;10.10;99.90
63537;DHT22;49686;51.880;5.632;2023-12-29T14:21:27;10.00;99.90
63537;DHT22;49686;51.880;5.632;2023-12-29T14:24:06;9.90;99.90
63537;DHT22;49686;51.880;5.632;2023-12-29T14:26:35;9.80;99.90
63537;DHT22;49686;51.880;5.632;2023-12-29T14:29:03;9.70;99.90
63537;DHT22;49686;51.880;5.632;2023-12-29T14:31:32;9.70;99.90
63537;DHT22;49686;51.880;5.632;2023-12-29T14:34:00;9.50;99.90
63537;DHT22;49686;51.880;5.632;2023-12-29T14:36:27;9.50;99.90
63537;DHT22;49686;51.880;5.632;2023-12-29T14:38:54;9.50;99.90
63537;DHT22;49686;51.880;5.632;2023-12-29T14:41:21;9.50;99.90
63537;DHT22;49686;51.880;5.632;2023-12-29T14:43:49;9.50;99.90
63537;DHT22;49686;51.880;5.632;2023-12-29T14:46:16;9.40;99.90
63537;DHT22;49686;51.880;5.632;2023-12-29T14:48:43;9.40;99.90
63537;DHT22;49686;51.880;5.632;2023-12-29T14:51:11;9.50;99.90
63537;DHT22;49686;51.880;5.632;2023-12-29T14:53:38;9.50;99.90
63537;DHT22;49686;51.880;5.632;2023-12-29T14:56:05;9.50;99.90
63537;DHT22;49686;51.880;5.632;2023-12-29T14:58:32;9.50;99.90
63537;DHT22;49686;51.880;5.632;2023-12-29T15:01:00;9.60;99.90
63537;DHT22;49686;51.880;5.632;2023-12-29T15:03:27;9.60;99.90
63537;DHT22;49686;51.880;5.632;2023-12-29T15:05:54;9.60;99.90
63537;DHT22;49686;51.880;5.632;2023-12-29T15:08:24;9.70;99.90
63537;DHT22;49686;51.880;5.632;2023-12-29T15:10:50;9.70;99.90
63537;DHT22;49686;51.880;5.632;2023-12-29T15:13:18;9.70;99.90
63537;DHT22;49686;51.880;5.632;2023-12-29T15:15:45;9.70;99.90
63537;DHT22;49686;51.880;5.632;2023-12-29T15:18:13;9.80;99.90
63537;DHT22;49686;51.880;5.632;2023-12-29T15:20:40;9.90;99.90
63537;DHT22;49686;51.880;5.632;2023-12-29T15:23:07;9.90;99.90
63537;DHT22;49686;51.880;5.632;2023-12-29T15:25:34;9.90;99.90
63537;DHT22;49686;51.880;5.632;2023-12-29T15:28:01;10.00;99.90
63537;DHT22;49686;51.880;5.632;2023-12-29T15:30:28;10.10;99.90
63537;DHT22;49686;51.880;5.632;2023-12-29T15:32:55;10.10;99.90
63537;DHT22;49686;51.880;5.632;2023-12-29T15:35:23;10.10;99.90
63537;DHT22;49686;51.880;5.632;2023-12-29T15:37:50;10.10;99.90
63537;DHT22;49686;51.880;5.632;2023-12-29T15:40:17;10.10;99.90
63537;DHT22;49686;51.880;5.632;2023-12-29T15:42:44;10.10;99.90
63537;DHT22;49686;51.880;5.632;2023-12-29T15:45:11;10.10;99.90